Time;durP1;ratioP1;P1;durP2;ratioP2;P2;SDS_P1;SDS_P2;PMS_P1;PMS_P2;Temp;Humidity;BMP_temperature;BMP_pressure;BME280_temperature;BME280_humidity;BME280_pressure;Samples;Min_cycle;Max_cycle;Signal;HPM_P1;HPM_P2
2022/12/09 00:02:05;;;;;;;6.50;5.17;;;;;;;;;;5014683;28;20397;-28
2022/12/09 00:04:34;;;;;;;7.67;5.07;;;;;;;;;;5010675;28;20207;-28
2022/12/09 00:07:01;;;;;;;6.50;4.60;;;;;;;;;;5012374;28;20209;-33
2022/12/09 00:09:28;;;;;;;7.20;4.80;;;;;;;;;;5014237;28;20290;-27
2022/12/09 00:11:55;;;;;;;7.07;5.17;;;;;;;;;;5007681;28;20253;-29
2022/12/09 00:14:23;;;;;;;6.53;4.87;;;;;;;;;;5014784;28;20207;-30
2022/12/09 00:16:50;;;;;;;5.90;4.07;;;;;;;;;;5014973;28;20203;-27
2022/12/09 00:19:17;;;;;;;5.87;4.07;;;;;;;;;;5014674;28;20207;-28
2022/12/09 00:21:45;;;;;;;6.60;4.37;;;;;;;;;;5005540;28;20226;-29
2022/12/09 00:24:13;;;;;;;6.37;4.80;;;;;;;;;;5010802;28;20290;-29
2022/12/09 00:26:42;;;;;;;7.13;5.23;;;;;;;;;;5005780;28;20207;-29
2022/12/09 00:29:11;;;;;;;11.27;4.77;;;;;;;;;;5013212;28;20307;-29
2022/12/09 00:31:38;;;;;;;7.87;4.93;;;;;;;;;;5014004;28;20959;-29
2022/12/09 00:34:07;;;;;;;8.00;5.17;;;;;;;;;;5010480;28;20239;-29
2022/12/09 00:36:34;;;;;;;5.30;4.50;;;;;;;;;;5001914;28;20572;-24
2022/12/09 00:39:03;;;;;;;7.13;5.00;;;;;;;;;;5011991;28;20203;-29
2022/12/09 00:41:30;;;;;;;9.13;5.40;;;;;;;;;;5004849;28;20216;-26
2022/12/09 00:43:57;;;;;;;7.50;4.80;;;;;;;;;;5012663;28;20203;-28
2022/12/09 00:46:24;;;;;;;5.57;4.50;;;;;;;;;;4998532;28;20204;-30
2022/12/09 00:48:52;;;;;;;6.23;5.13;;;;;;;;;;5003879;28;20204;-28
2022/12/09 00:51:20;;;;;;;8.13;5.30;;;;;;;;;;5014994;28;20313;-30
2022/12/09 00:53:49;;;;;;;5.97;4.53;;;;;;;;;;5015043;28;20215;-27
2022/12/09 00:56:17;;;;;;;6.40;4.70;;;;;;;;;;5006992;28;20223;-27
2022/12/09 00:58:44;;;;;;;8.00;4.43;;;;;;;;;;5008991;28;20206;-26
2022/12/09 01:01:11;;;;;;;7.13;4.83;;;;;;;;;;5009932;28;20305;-25
2022/12/09 01:03:39;;;;;;;5.20;4.33;;;;;;;;;;5010601;28;20294;-30
2022/12/09 01:06:08;;;;;;;5.37;4.33;;;;;;;;;;5007904;28;20243;-27
2022/12/09 01:08:35;;;;;;;6.37;4.60;;;;;;;;;;5013207;28;20218;-28
2022/12/09 01:11:08;;;;;;;6.73;4.60;;;;;;;;;;5009982;28;20234;-29
2022/12/09 01:13:36;;;;;;;7.43;4.83;;;;;;;;;;5011071;28;20203;-26
2022/12/09 01:16:04;;;;;;;8.00;4.10;;;;;;;;;;5013571;28;20207;-27
2022/12/09 01:18:31;;;;;;;5.60;3.87;;;;;;;;;;5007857;28;20211;-30
2022/12/09 01:20:58;;;;;;;8.43;5.30;;;;;;;;;;5006039;28;20228;-27
2022/12/09 01:23:25;;;;;;;7.43;5.17;;;;;;;;;;5010377;28;20226;-27
2022/12/09 01:25:52;;;;;;;5.90;4.20;;;;;;;;;;5009353;28;20700;-26
2022/12/09 01:28:19;;;;;;;7.17;4.03;;;;;;;;;;5011768;28;20207;-28
2022/12/09 01:33:52;;;;;;;5.00;3.60;;;;;;;;;;5013920;28;20245;-23
2022/12/09 01:36:20;;;;;;;6.07;4.00;;;;;;;;;;5011431;28;20298;-27
2022/12/09 01:38:48;;;;;;;6.50;4.03;;;;;;;;;;5013871;28;20237;-30
2022/12/09 01:41:15;;;;;;;6.67;4.27;;;;;;;;;;5007684;28;20320;-29
2022/12/09 01:43:43;;;;;;;7.13;4.07;;;;;;;;;;5012817;28;20297;-29
2022/12/09 01:46:10;;;;;;;5.33;3.87;;;;;;;;;;5006982;28;20204;-28
2022/12/09 01:48:38;;;;;;;9.17;4.70;;;;;;;;;;5013099;28;20214;-26
2022/12/09 01:51:12;;;;;;;5.43;4.23;;;;;;;;;;5006381;28;20231;-28
2022/12/09 01:53:41;;;;;;;5.27;4.13;;;;;;;;;;5012555;28;20294;-28
2022/12/09 01:56:11;;;;;;;6.80;3.67;;;;;;;;;;5006820;28;20284;-25
2022/12/09 01:58:38;;;;;;;6.17;4.30;;;;;;;;;;5011338;28;20299;-30
2022/12/09 02:01:06;;;;;;;6.53;4.20;;;;;;;;;;5008998;28;20243;-26
2022/12/09 02:03:33;;;;;;;5.07;4.23;;;;;;;;;;5021823;28;20262;-28
2022/12/09 02:06:00;;;;;;;6.93;4.60;;;;;;;;;;5025946;28;20302;-25
2022/12/09 02:08:29;;;;;;;5.43;4.20;;;;;;;;;;5014153;28;20204;-27
2022/12/09 02:11:01;;;;;;;6.57;3.90;;;;;;;;;;4997683;28;20318;-24
2022/12/09 02:13:32;;;;;;;6.13;3.97;;;;;;;;;;5011928;28;20211;-31
2022/12/09 02:16:01;;;;;;;6.83;4.23;;;;;;;;;;5013074;28;20195;-27
2022/12/09 02:18:33;;;;;;;5.83;4.33;;;;;;;;;;5011463;28;20213;-28
2022/12/09 02:21:01;;;;;;;6.30;4.40;;;;;;;;;;5007809;28;20242;-25
2022/12/09 02:23:34;;;;;;;7.10;4.73;;;;;;;;;;5011103;28;20218;-26
2022/12/09 02:26:07;;;;;;;5.50;4.50;;;;;;;;;;5006874;28;20290;-27
2022/12/09 02:28:42;;;;;;;6.10;4.03;;;;;;;;;;5011711;28;20237;-28
2022/12/09 02:31:15;;;;;;;5.63;3.97;;;;;;;;;;5011091;28;20226;-27
2022/12/09 02:33:45;;;;;;;5.93;4.27;;;;;;;;;;4989696;28;20211;-26
2022/12/09 02:36:15;;;;;;;7.10;3.93;;;;;;;;;;4997330;28;20204;-28
2022/12/09 02:38:43;;;;;;;5.60;4.50;;;;;;;;;;5007725;28;20205;-31
2022/12/09 02:41:11;;;;;;;6.53;4.43;;;;;;;;;;5002111;28;20239;-25
2022/12/09 02:43:40;;;;;;;9.03;5.87;;;;;;;;;;5011563;28;20210;-27
2022/12/09 02:46:09;;;;;;;6.97;4.17;;;;;;;;;;5016426;28;20203;-27
2022/12/09 02:48:37;;;;;;;4.63;4.03;;;;;;;;;;4997210;28;20207;-26
2022/12/09 02:58:51;;;;;;;7.47;4.10;;;;;;;;;;5033899;28;20222;-33
2022/12/09 03:01:32;;;;;;;4.90;4.27;;;;;;;;;;5037103;22;20710;-33
2022/12/09 03:04:09;;;;;;;8.77;3.90;;;;;;;;;;5030774;28;20699;-35
2022/12/09 03:06:51;;;;;;;5.20;3.53;;;;;;;;;;5036867;28;20786;-35
2022/12/09 03:09:32;;;;;;;5.50;3.93;;;;;;;;;;5035480;28;20279;-32
2022/12/09 03:12:17;;;;;;;6.13;3.97;;;;;;;;;;5023202;28;20234;-35
2022/12/09 03:15:08;;;;;;;5.13;3.50;;;;;;;;;;5024878;28;20282;-30
2022/12/09 03:17:43;;;;;;;5.63;3.83;;;;;;;;;;5019189;28;20231;-31
2022/12/09 03:22:49;;;;;;;8.13;4.90;;;;;;;;;;5041659;28;20217;-26
2022/12/09 03:25:31;;;;;;;9.67;4.50;;;;;;;;;;5035426;28;20212;-25
2022/12/09 03:31:08;;;;;;;5.50;4.07;;;;;;;;;;5026610;28;20235;-25
2022/12/09 03:33:48;;;;;;;5.00;3.43;;;;;;;;;;5016626;28;20661;-24
2022/12/09 03:44:48;;;;;;;6.13;3.97;;;;;;;;;;5033498;28;20288;-29
2022/12/09 03:47:32;;;;;;;4.13;3.00;;;;;;;;;;5024594;28;20210;-30
2022/12/09 03:50:18;;;;;;;4.23;3.40;;;;;;;;;;5021364;28;20202;-40
2022/12/09 03:55:34;;;;;;;6.27;3.83;;;;;;;;;;5010559;28;20222;-35
2022/12/09 04:01:08;;;;;;;5.80;4.30;;;;;;;;;;5025777;23;20231;-29
2022/12/09 04:03:47;;;;;;;4.50;3.40;;;;;;;;;;5031466;28;20217;-35
2022/12/09 04:06:18;;;;;;;6.50;3.87;;;;;;;;;;5034761;28;20293;-32
2022/12/09 04:08:57;;;;;;;5.87;3.67;;;;;;;;;;5035190;28;20207;-34
2022/12/09 04:14:07;;;;;;;6.80;4.17;;;;;;;;;;5026573;28;20266;-34
2022/12/09 04:19:18;;;;;;;7.13;4.00;;;;;;;;;;5012596;28;20286;-38
2022/12/09 04:21:56;;;;;;;5.40;3.87;;;;;;;;;;4994937;28;20228;-35
2022/12/09 04:24:36;;;;;;;5.67;3.87;;;;;;;;;;4995937;28;20303;-32
2022/12/09 04:27:09;;;;;;;5.93;3.67;;;;;;;;;;4999749;28;20203;-34
2022/12/09 04:30:07;;;;;;;7.30;4.20;;;;;;;;;;5005963;28;20226;-36
2022/12/09 04:32:46;;;;;;;5.47;3.70;;;;;;;;;;4977987;28;20237;-33
2022/12/09 04:35:56;;;;;;;5.10;3.47;;;;;;;;;;4992814;28;20215;-35
2022/12/09 04:41:19;;;;;;;5.67;3.47;;;;;;;;;;5002546;28;20701;-32
2022/12/09 04:43:49;;;;;;;5.73;3.93;;;;;;;;;;4998533;28;20295;-33
2022/12/09 04:46:22;;;;;;;5.17;4.10;;;;;;;;;;5011486;28;20207;-34
2022/12/09 04:48:55;;;;;;;6.03;3.80;;;;;;;;;;4987071;28;20204;-35
2022/12/09 04:51:35;;;;;;;4.53;3.80;;;;;;;;;;5017180;23;20318;-37
2022/12/09 04:54:10;;;;;;;7.17;4.20;;;;;;;;;;5024697;28;20230;-34
2022/12/09 04:59:11;;;;;;;6.33;3.93;;;;;;;;;;5028810;28;20297;-36
2022/12/09 05:01:48;;;;;;;3.90;3.40;;;;;;;;;;5031040;28;20231;-32
2022/12/09 05:04:22;;;;;;;3.77;3.40;;;;;;;;;;5035555;28;20206;-32
2022/12/09 05:07:00;;;;;;;5.67;4.07;;;;;;;;;;5023710;28;20216;-33
2022/12/09 05:12:02;;;;;;;6.50;4.03;;;;;;;;;;5018842;28;20226;-33
2022/12/09 05:14:32;;;;;;;4.80;3.90;;;;;;;;;;5032524;28;20210;-36
2022/12/09 05:17:01;;;;;;;5.53;3.83;;;;;;;;;;5034382;28;20262;-32
2022/12/09 05:19:34;;;;;;;4.70;3.83;;;;;;;;;;5023377;28;20230;-35
2022/12/09 05:22:07;;;;;;;6.13;3.87;;;;;;;;;;5017491;28;20219;-33
2022/12/09 05:24:39;;;;;;;7.37;3.40;;;;;;;;;;5018922;28;20244;-30
2022/12/09 05:29:39;;;;;;;4.60;3.67;;;;;;;;;;5005580;28;20318;-36
2022/12/09 05:39:48;;;;;;;8.70;3.70;;;;;;;;;;5004542;28;20227;-33
2022/12/09 05:42:17;;;;;;;4.17;3.30;;;;;;;;;;5003539;28;20255;-33
2022/12/09 05:44:53;;;;;;;4.93;3.37;;;;;;;;;;5010165;28;20681;-32
2022/12/09 05:54:59;;;;;;;6.93;3.70;;;;;;;;;;5001735;28;20215;-33
2022/12/09 05:59:56;;;;;;;5.20;3.30;;;;;;;;;;5002431;28;20563;-32
2022/12/09 06:02:24;;;;;;;5.73;3.67;;;;;;;;;;4995947;28;20259;-31
2022/12/09 06:04:51;;;;;;;5.30;4.07;;;;;;;;;;5007611;28;20663;-35
2022/12/09 06:07:20;;;;;;;5.90;4.10;;;;;;;;;;5010887;28;20204;-33
2022/12/09 06:09:51;;;;;;;6.37;3.53;;;;;;;;;;5012924;28;20207;-32
2022/12/09 06:12:20;;;;;;;5.27;3.87;;;;;;;;;;5009245;28;20227;-30
2022/12/09 06:14:51;;;;;;;5.43;3.83;;;;;;;;;;5009857;28;20317;-31
2022/12/09 06:17:24;;;;;;;4.87;3.37;;;;;;;;;;5004525;28;20203;-32
2022/12/09 06:19:57;;;;;;;5.93;3.27;;;;;;;;;;5013231;28;20221;-35
2022/12/09 06:22:39;;;;;;;4.67;3.40;;;;;;;;;;5011804;28;20219;-31
2022/12/09 06:25:11;;;;;;;6.80;3.70;;;;;;;;;;5005647;28;20261;-36
2022/12/09 06:27:43;;;;;;;6.77;4.63;;;;;;;;;;5007044;28;20210;-31
2022/12/09 06:30:12;;;;;;;6.13;4.00;;;;;;;;;;5005092;28;20618;-31
2022/12/09 06:32:39;;;;;;;6.23;4.07;;;;;;;;;;5003277;28;20227;-30
2022/12/09 06:35:08;;;;;;;8.03;3.97;;;;;;;;;;5005213;28;20265;-35
2022/12/09 06:37:38;;;;;;;4.90;4.40;;;;;;;;;;5002110;28;20203;-34
2022/12/09 06:40:06;;;;;;;6.57;4.00;;;;;;;;;;5009700;28;20266;-33
2022/12/09 06:42:34;;;;;;;6.37;4.00;;;;;;;;;;5009908;28;20290;-34
2022/12/09 06:45:03;;;;;;;6.60;4.57;;;;;;;;;;5002936;28;20568;-36
2022/12/09 06:47:30;;;;;;;4.40;3.53;;;;;;;;;;5005395;28;20397;-37
2022/12/09 06:50:01;;;;;;;8.17;4.40;;;;;;;;;;5006087;28;20258;-34
2022/12/09 06:52:30;;;;;;;5.87;3.70;;;;;;;;;;5011607;28;20234;-36
2022/12/09 06:54:59;;;;;;;4.90;3.77;;;;;;;;;;5007043;28;20203;-32
2022/12/09 06:57:29;;;;;;;5.07;3.40;;;;;;;;;;4999684;28;20215;-34
2022/12/09 06:59:57;;;;;;;4.27;3.60;;;;;;;;;;5009768;28;20216;-29
2022/12/09 07:02:27;;;;;;;5.87;3.13;;;;;;;;;;4992899;28;20287;-41
2022/12/09 07:04:54;;;;;;;5.47;4.03;;;;;;;;;;5000474;28;20208;-31
2022/12/09 07:07:22;;;;;;;7.40;4.50;;;;;;;;;;5005428;28;20902;-32
2022/12/09 07:09:49;;;;;;;5.60;4.60;;;;;;;;;;4999357;28;20215;-34
2022/12/09 07:12:17;;;;;;;4.97;3.70;;;;;;;;;;4998810;28;20233;-33
2022/12/09 07:14:48;;;;;;;7.27;4.40;;;;;;;;;;4993313;28;20716;-30
2022/12/09 07:17:16;;;;;;;6.73;4.50;;;;;;;;;;5001765;28;20210;-33
2022/12/09 07:19:46;;;;;;;7.40;4.93;;;;;;;;;;5002936;28;20211;-36
2022/12/09 07:22:14;;;;;;;6.53;4.17;;;;;;;;;;5000476;28;20285;-34
2022/12/09 07:24:44;;;;;;;5.97;4.20;;;;;;;;;;5004520;28;20255;-30
2022/12/09 07:27:14;;;;;;;5.17;4.07;;;;;;;;;;4994474;28;20295;-35
2022/12/09 07:29:43;;;;;;;7.97;4.80;;;;;;;;;;5002997;28;20214;-32
2022/12/09 07:32:11;;;;;;;8.70;4.80;;;;;;;;;;5013248;28;20251;-35
2022/12/09 07:34:39;;;;;;;7.63;4.80;;;;;;;;;;5012472;28;20203;-37
2022/12/09 07:37:07;;;;;;;5.77;4.53;;;;;;;;;;5005591;28;20642;-32
2022/12/09 07:39:35;;;;;;;5.43;4.20;;;;;;;;;;5012086;28;20323;-36
2022/12/09 07:42:02;;;;;;;8.33;5.20;;;;;;;;;;5008454;28;20226;-32
2022/12/09 07:44:29;;;;;;;7.03;4.97;;;;;;;;;;5007151;28;20338;-34
2022/12/09 07:46:57;;;;;;;10.03;5.90;;;;;;;;;;5014868;28;20819;-36
2022/12/09 07:49:24;;;;;;;8.83;5.17;;;;;;;;;;5007509;28;20212;-37
2022/12/09 07:52:05;;;;;;;7.60;4.70;;;;;;;;;;4999083;28;20909;-29
2022/12/09 07:54:35;;;;;;;9.20;5.50;;;;;;;;;;5005419;28;20219;-35
2022/12/09 07:57:02;;;;;;;6.57;4.47;;;;;;;;;;4997374;28;20463;-35
2022/12/09 07:59:29;;;;;;;7.13;5.07;;;;;;;;;;5000836;28;20211;-33
2022/12/09 08:01:57;;;;;;;7.90;5.33;;;;;;;;;;5006715;28;20215;-31
2022/12/09 08:04:24;;;;;;;8.43;5.47;;;;;;;;;;5002262;28;20296;-33
2022/12/09 08:06:51;;;;;;;10.30;5.50;;;;;;;;;;5013602;28;20199;-30
2022/12/09 08:09:18;;;;;;;8.70;4.90;;;;;;;;;;5011745;28;20207;-31
2022/12/09 08:11:47;;;;;;;9.40;4.97;;;;;;;;;;5011675;28;20231;-32
2022/12/09 08:14:14;;;;;;;10.03;5.23;;;;;;;;;;5009565;28;20286;-32
2022/12/09 08:16:42;;;;;;;13.23;6.33;;;;;;;;;;5014919;28;20247;-30
2022/12/09 08:19:09;;;;;;;8.83;5.70;;;;;;;;;;5007814;28;20273;-33
2022/12/09 08:21:36;;;;;;;10.03;5.73;;;;;;;;;;5011262;28;20231;-31
2022/12/09 08:24:06;;;;;;;12.17;6.27;;;;;;;;;;5006565;28;20214;-32
2022/12/09 08:26:35;;;;;;;12.60;6.27;;;;;;;;;;5009429;28;20238;-34
2022/12/09 08:29:07;;;;;;;11.30;5.47;;;;;;;;;;5006521;28;20222;-34
2022/12/09 08:31:36;;;;;;;11.17;6.67;;;;;;;;;;5023443;23;20292;-34
2022/12/09 08:34:03;;;;;;;8.13;5.87;;;;;;;;;;5032970;28;20225;-36
2022/12/09 08:36:46;;;;;;;8.90;6.27;;;;;;;;;;5025625;28;20214;-33
2022/12/09 08:39:15;;;;;;;11.00;6.77;;;;;;;;;;5034060;28;20210;-32
2022/12/09 08:41:45;;;;;;;11.80;6.70;;;;;;;;;;5015172;28;20231;-34
2022/12/09 08:44:16;;;;;;;13.87;6.87;;;;;;;;;;5005057;28;20302;-36
2022/12/09 08:46:45;;;;;;;12.27;6.97;;;;;;;;;;5004152;28;20220;-37
2022/12/09 08:49:16;;;;;;;14.80;7.53;;;;;;;;;;4997275;28;20214;-34
2022/12/09 08:54:12;;;;;;;9.83;6.63;;;;;;;;;;5026435;28;20218;-34
2022/12/09 08:56:39;;;;;;;13.30;6.70;;;;;;;;;;5031832;28;20209;-39
2022/12/09 08:59:06;;;;;;;10.67;6.50;;;;;;;;;;5033671;28;20217;-33
2022/12/09 09:01:35;;;;;;;11.00;6.00;;;;;;;;;;5032596;28;20233;-37
2022/12/09 09:04:03;;;;;;;9.63;6.50;;;;;;;;;;5028377;28;20198;-36
2022/12/09 09:06:30;;;;;;;13.23;6.80;;;;;;;;;;5018677;28;20210;-35
2022/12/09 09:08:57;;;;;;;9.87;6.90;;;;;;;;;;5024825;28;20213;-29
2022/12/09 09:11:25;;;;;;;11.77;6.83;;;;;;;;;;5024173;28;20266;-27
2022/12/09 09:13:52;;;;;;;10.43;7.03;;;;;;;;;;5029078;28;20270;-32
2022/12/09 09:16:20;;;;;;;13.30;7.60;;;;;;;;;;5030211;28;20282;-30
2022/12/09 09:18:49;;;;;;;14.63;8.60;;;;;;;;;;5029106;28;20293;-36
2022/12/09 09:21:17;;;;;;;13.47;7.57;;;;;;;;;;5019236;28;20227;-38
2022/12/09 09:23:44;;;;;;;10.97;7.43;;;;;;;;;;5026601;28;20195;-37
2022/12/09 09:26:12;;;;;;;12.77;7.20;;;;;;;;;;5027574;28;20299;-37
2022/12/09 09:28:39;;;;;;;10.67;7.03;;;;;;;;;;5020167;28;20207;-34
2022/12/09 09:31:07;;;;;;;11.87;6.07;;;;;;;;;;5017537;28;20226;-30
2022/12/09 09:33:34;;;;;;;11.03;6.57;;;;;;;;;;5013008;28;20222;-35
2022/12/09 09:36:04;;;;;;;9.60;6.47;;;;;;;;;;5023962;28;20207;-35
2022/12/09 09:38:32;;;;;;;16.53;7.67;;;;;;;;;;5024479;28;20274;-40
2022/12/09 09:41:00;;;;;;;14.57;7.83;;;;;;;;;;5010977;28;20223;-33
2022/12/09 09:43:29;;;;;;;14.37;8.33;;;;;;;;;;5018329;28;20207;-28
2022/12/09 09:45:56;;;;;;;12.87;7.10;;;;;;;;;;5023368;28;20203;-33
2022/12/09 09:48:25;;;;;;;17.20;8.13;;;;;;;;;;5030908;28;20222;-37
2022/12/09 09:50:56;;;;;;;13.63;7.63;;;;;;;;;;5019438;28;20223;-33
2022/12/09 09:53:26;;;;;;;15.73;8.20;;;;;;;;;;5024157;28;20226;-32
2022/12/09 09:55:59;;;;;;;19.00;9.17;;;;;;;;;;5019040;28;20199;-32
2022/12/09 09:58:28;;;;;;;14.03;8.00;;;;;;;;;;5029889;28;20199;-36
2022/12/09 10:00:59;;;;;;;16.20;8.97;;;;;;;;;;5031004;28;20214;-35
2022/12/09 10:03:34;;;;;;;30.07;26.97;;;;;;;;;;5028907;28;20199;-32
2022/12/09 10:06:05;;;;;;;30.67;27.43;;;;;;;;;;5017583;28;20470;-32
2022/12/09 10:08:36;;;;;;;20.30;15.97;;;;;;;;;;5027967;28;20681;-31
2022/12/09 10:11:08;;;;;;;19.87;12.40;;;;;;;;;;5010550;28;20246;-32
2022/12/09 10:13:43;;;;;;;21.00;12.17;;;;;;;;;;5020601;28;20235;-34
2022/12/09 10:16:14;;;;;;;17.47;12.33;;;;;;;;;;5027460;28;20220;-33
2022/12/09 10:18:43;;;;;;;15.60;11.83;;;;;;;;;;5028534;28;20216;-36
2022/12/09 10:21:15;;;;;;;20.47;14.27;;;;;;;;;;5021062;28;20254;-31
2022/12/09 10:23:44;;;;;;;20.60;15.07;;;;;;;;;;5020410;28;20321;-32
2022/12/09 10:26:16;;;;;;;18.10;10.60;;;;;;;;;;5015354;28;20210;-38
2022/12/09 10:28:45;;;;;;;18.57;15.30;;;;;;;;;;5015495;28;20199;-37
2022/12/09 10:31:12;;;;;;;20.47;12.40;;;;;;;;;;5031672;28;20237;-34
2022/12/09 10:33:40;;;;;;;20.13;10.50;;;;;;;;;;5032411;28;20222;-33
2022/12/09 10:36:19;;;;;;;18.37;11.97;;;;;;;;;;5021831;28;20213;-36
2022/12/09 10:38:48;;;;;;;16.63;11.70;;;;;;;;;;5020693;28;20235;-34
2022/12/09 10:43:33;;;;;;;16.47;12.17;;;;;;;;;;5019991;28;20227;-33
2022/12/09 10:44:17;;;;;;;21.40;11.30;;;;;;;;;;5019765;28;20215;-37
2022/12/09 10:46:44;;;;;;;17.30;9.70;;;;;;;;;;5032134;28;20249;-39
2022/12/09 10:49:16;;;;;;;19.07;10.80;;;;;;;;;;5029731;28;20212;-36
2022/12/09 10:51:48;;;;;;;20.27;10.73;;;;;;;;;;5012056;28;20230;-39
2022/12/09 10:54:19;;;;;;;18.27;10.80;;;;;;;;;;5012373;28;20218;-36
2022/12/09 10:57:01;;;;;;;16.93;10.93;;;;;;;;;;5016196;28;20199;-37
2022/12/09 10:59:29;;;;;;;18.93;9.87;;;;;;;;;;5018254;28;20297;-34
2022/12/09 11:01:57;;;;;;;16.30;10.43;;;;;;;;;;5032055;28;20226;-33
2022/12/09 11:04:25;;;;;;;16.57;9.27;;;;;;;;;;5032431;28;20203;-30
2022/12/09 11:06:53;;;;;;;15.47;10.50;;;;;;;;;;5025148;28;20207;-31
2022/12/09 11:09:25;;;;;;;19.77;10.23;;;;;;;;;;5033663;28;20238;-35
2022/12/09 11:11:53;;;;;;;17.93;10.80;;;;;;;;;;5021638;28;20227;-38
2022/12/09 11:14:22;;;;;;;18.50;10.67;;;;;;;;;;5023129;28;20223;-37
2022/12/09 11:16:50;;;;;;;22.50;10.33;;;;;;;;;;5016232;28;20571;-32
2022/12/09 11:19:17;;;;;;;16.77;10.40;;;;;;;;;;5014629;28;20282;-39
2022/12/09 11:21:44;;;;;;;16.83;10.30;;;;;;;;;;5015936;28;20229;-34
2022/12/09 11:24:20;;;;;;;16.90;10.10;;;;;;;;;;5015225;28;20442;-39
2022/12/09 11:26:48;;;;;;;16.00;9.90;;;;;;;;;;5015297;28;20199;-37
2022/12/09 11:29:17;;;;;;;22.53;11.47;;;;;;;;;;5014774;28;20208;-37
2022/12/09 11:31:45;;;;;;;17.27;9.70;;;;;;;;;;5034244;28;20364;-39
2022/12/09 11:34:17;;;;;;;18.53;10.33;;;;;;;;;;5028968;28;20231;-33
2022/12/09 11:36:47;;;;;;;18.30;9.70;;;;;;;;;;5020614;28;20287;-30
2022/12/09 11:39:18;;;;;;;18.03;9.43;;;;;;;;;;5016410;28;20207;-36
2022/12/09 11:44:33;;;;;;;16.27;10.20;;;;;;;;;;5017377;28;20260;-34
2022/12/09 11:47:02;;;;;;;13.90;8.83;;;;;;;;;;5035520;28;20210;-28
2022/12/09 11:49:30;;;;;;;13.47;10.03;;;;;;;;;;5034761;28;20305;-30
2022/12/09 11:52:05;;;;;;;19.20;10.13;;;;;;;;;;5023659;28;20223;-37
2022/12/09 11:54:36;;;;;;;16.67;9.50;;;;;;;;;;5026353;28;20220;-39
2022/12/09 11:57:04;;;;;;;16.83;9.57;;;;;;;;;;5023630;28;20203;-37
2022/12/09 11:59:32;;;;;;;17.07;9.80;;;;;;;;;;5016384;28;20213;-35
2022/12/09 12:02:04;;;;;;;21.53;10.30;;;;;;;;;;5034770;28;20241;-32
2022/12/09 12:04:34;;;;;;;15.30;8.93;;;;;;;;;;5029233;28;20203;-34
2022/12/09 12:07:04;;;;;;;14.73;8.47;;;;;;;;;;5019675;28;20207;-33
2022/12/09 12:09:34;;;;;;;20.00;10.20;;;;;;;;;;5014135;28;20235;-38
2022/12/09 12:12:05;;;;;;;16.40;9.67;;;;;;;;;;5019970;28;20231;-32
2022/12/09 12:14:33;;;;;;;16.47;9.83;;;;;;;;;;5025815;28;20238;-34
2022/12/09 12:17:07;;;;;;;20.87;10.57;;;;;;;;;;5034200;28;20267;-36
2022/12/09 12:19:36;;;;;;;14.77;8.87;;;;;;;;;;5024189;28;20202;-35
2022/12/09 12:22:14;;;;;;;14.87;9.13;;;;;;;;;;5024720;28;20223;-33
2022/12/09 12:24:49;;;;;;;28.93;16.40;;;;;;;;;;5015186;28;20193;-40
2022/12/09 12:27:25;;;;;;;37.43;20.33;;;;;;;;;;5020705;28;20286;-35
2022/12/09 12:29:56;;;;;;;14.83;9.40;;;;;;;;;;5025123;28;20198;-31
2022/12/09 12:32:32;;;;;;;15.33;9.27;;;;;;;;;;5033737;28;20234;-31
2022/12/09 12:35:03;;;;;;;17.17;10.03;;;;;;;;;;5022496;28;20269;-33
2022/12/09 12:37:40;;;;;;;16.37;9.50;;;;;;;;;;5024956;28;20214;-36
2022/12/09 12:40:08;;;;;;;14.03;8.53;;;;;;;;;;5030945;28;20220;-36
2022/12/09 12:46:15;;;;;;;12.87;8.27;;;;;;;;;;5019719;28;20207;-36
2022/12/09 12:48:25;;;;;;;17.63;9.30;;;;;;;;;;5011189;28;20211;-35
2022/12/09 12:50:57;;;;;;;13.43;8.10;;;;;;;;;;5022382;28;20224;-39
2022/12/09 12:53:30;;;;;;;14.40;9.27;;;;;;;;;;5013408;28;20234;-32
2022/12/09 12:55:59;;;;;;;19.63;10.03;;;;;;;;;;5018946;28;20199;-35
2022/12/09 12:58:34;;;;;;;25.50;11.87;;;;;;;;;;5024185;28;20237;-40
2022/12/09 13:01:04;;;;;;;16.97;9.20;;;;;;;;;;5017348;28;20762;-33
2022/12/09 13:03:36;;;;;;;16.03;9.27;;;;;;;;;;5012493;28;20246;-35
2022/12/09 13:06:04;;;;;;;17.07;9.43;;;;;;;;;;5023148;28;20287;-31
2022/12/09 13:08:36;;;;;;;17.97;10.10;;;;;;;;;;5022491;28;20207;-34
2022/12/09 13:11:08;;;;;;;17.33;10.87;;;;;;;;;;5014671;28;20233;-38
2022/12/09 13:13:37;;;;;;;19.27;10.40;;;;;;;;;;5016021;28;20231;-40
2022/12/09 13:16:09;;;;;;;17.17;9.90;;;;;;;;;;5032857;28;20217;-32
2022/12/09 13:18:38;;;;;;;23.07;12.03;;;;;;;;;;5033057;28;20313;-34
2022/12/09 13:21:06;;;;;;;17.50;9.40;;;;;;;;;;5027434;28;20227;-37
2022/12/09 13:23:41;;;;;;;17.90;9.93;;;;;;;;;;5023198;28;20203;-35
2022/12/09 13:26:26;;;;;;;15.00;8.60;;;;;;;;;;5024921;28;20214;-36
2022/12/09 13:28:58;;;;;;;23.70;12.43;;;;;;;;;;5012477;28;20206;-41
2022/12/09 13:31:28;;;;;;;20.40;10.37;;;;;;;;;;5030705;28;20241;-39
2022/12/09 13:34:02;;;;;;;18.90;9.83;;;;;;;;;;5029210;28;20211;-33
2022/12/09 13:36:35;;;;;;;20.30;11.57;;;;;;;;;;5020679;28;20211;-35
2022/12/09 13:39:02;;;;;;;22.17;11.30;;;;;;;;;;5014494;28;20188;-36
2022/12/09 13:44:26;;;;;;;42.27;20.20;;;;;;;;;;5022448;28;20349;-31
2022/12/09 13:46:53;;;;;;;23.73;13.20;;;;;;;;;;5013467;28;20303;-37
2022/12/09 13:49:24;;;;;;;25.53;13.67;;;;;;;;;;5011214;28;20203;-37
2022/12/09 13:51:53;;;;;;;23.60;11.33;;;;;;;;;;5017173;28;20310;-33
2022/12/09 13:54:22;;;;;;;23.13;11.83;;;;;;;;;;5027674;28;20230;-38
2022/12/09 13:57:01;;;;;;;23.10;11.37;;;;;;;;;;5025793;28;20234;-31
2022/12/09 13:59:45;;;;;;;21.70;11.87;;;;;;;;;;5101671;27;20586;-36
2022/12/09 14:02:15;;;;;;;20.77;11.50;;;;;;;;;;5111201;28;20270;-41
2022/12/09 14:04:47;;;;;;;20.80;10.97;;;;;;;;;;5094944;28;20200;-33
2022/12/09 14:07:22;;;;;;;23.17;11.77;;;;;;;;;;5091956;28;20204;-35
2022/12/09 14:09:51;;;;;;;19.77;10.97;;;;;;;;;;5090296;28;20283;-36
2022/12/09 14:12:33;;;;;;;22.00;11.67;;;;;;;;;;5093335;28;20925;-43
2022/12/09 14:15:02;;;;;;;20.97;10.70;;;;;;;;;;5089880;28;20197;-35
2022/12/09 14:17:59;;;;;;;21.10;11.77;;;;;;;;;;5090553;28;20291;-32
2022/12/09 14:20:44;;;;;;;25.33;11.90;;;;;;;;;;5083764;28;20304;-35
2022/12/09 14:23:17;;;;;;;21.43;11.37;;;;;;;;;;5102205;28;20198;-35
2022/12/09 14:25:59;;;;;;;24.77;12.00;;;;;;;;;;5069898;28;20201;-35
2022/12/09 14:28:41;;;;;;;20.67;11.07;;;;;;;;;;5092405;28;20278;-35
2022/12/09 14:31:10;;;;;;;21.60;11.23;;;;;;;;;;5077129;28;20350;-33
2022/12/09 14:33:38;;;;;;;20.03;10.77;;;;;;;;;;5090154;28;20292;-38
2022/12/09 14:36:06;;;;;;;23.50;12.93;;;;;;;;;;5078088;28;20579;-31
2022/12/09 14:38:37;;;;;;;19.50;10.67;;;;;;;;;;5105536;28;20216;-36
2022/12/09 14:41:16;;;;;;;21.77;11.07;;;;;;;;;;5098868;28;20231;-36
2022/12/09 14:43:47;;;;;;;24.30;12.27;;;;;;;;;;5092386;28;20283;-35
2022/12/09 14:46:27;;;;;;;19.67;10.60;;;;;;;;;;5093414;28;20189;-31
2022/12/09 14:48:57;;;;;;;25.17;12.33;;;;;;;;;;5088421;28;20383;-34
2022/12/09 14:51:25;;;;;;;23.00;12.27;;;;;;;;;;5080093;28;20225;-38
2022/12/09 14:56:22;;;;;;;50.33;22.30;;;;;;;;;;5043974;28;20220;-36
2022/12/09 14:58:49;;;;;;;60.93;24.97;;;;;;;;;;5033052;28;20312;-29
2022/12/09 15:01:48;;;;;;;33.67;17.10;;;;;;;;;;5047608;28;20222;-32
2022/12/09 15:04:23;;;;;;;34.80;16.73;;;;;;;;;;5041323;28;20390;-31
2022/12/09 15:07:06;;;;;;;31.57;16.53;;;;;;;;;;5040746;28;20212;-32
2022/12/09 15:09:34;;;;;;;26.43;14.30;;;;;;;;;;5035145;28;20206;-33
2022/12/09 15:12:01;;;;;;;24.40;12.37;;;;;;;;;;5019143;28;20559;-34
2022/12/09 15:14:28;;;;;;;23.27;12.63;;;;;;;;;;5027451;28;20686;-34
2022/12/09 15:16:55;;;;;;;25.67;13.60;;;;;;;;;;5035662;28;20211;-34
2022/12/09 15:19:25;;;;;;;25.63;12.33;;;;;;;;;;5029046;28;20215;-28
2022/12/09 15:21:52;;;;;;;27.40;13.27;;;;;;;;;;5029583;28;20230;-38
2022/12/09 15:24:20;;;;;;;26.20;13.80;;;;;;;;;;5012507;28;20203;-35
2022/12/09 15:26:57;;;;;;;27.07;13.33;;;;;;;;;;5023492;28;20691;-31
2022/12/09 15:29:28;;;;;;;27.47;12.97;;;;;;;;;;5014642;28;20203;-33
2022/12/09 15:32:18;;;;;;;21.07;12.10;;;;;;;;;;5020898;28;20222;-33
2022/12/09 15:34:46;;;;;;;25.77;13.30;;;;;;;;;;5029038;28;20204;-32
2022/12/09 15:37:15;;;;;;;23.53;12.27;;;;;;;;;;5026263;28;20214;-32
2022/12/09 15:39:44;;;;;;;24.90;13.90;;;;;;;;;;5026268;28;20210;-33
2022/12/09 15:42:13;;;;;;;26.87;13.37;;;;;;;;;;5026028;28;20233;-32
2022/12/09 15:44:43;;;;;;;23.10;12.50;;;;;;;;;;5018149;28;20199;-36
2022/12/09 15:47:14;;;;;;;22.60;12.13;;;;;;;;;;5035227;28;20210;-31
2022/12/09 15:49:43;;;;;;;22.13;11.20;;;;;;;;;;5025604;28;20223;-36
2022/12/09 15:52:13;;;;;;;22.87;12.43;;;;;;;;;;5026469;28;20228;-36
2022/12/09 15:54:42;;;;;;;21.70;11.73;;;;;;;;;;5027742;28;20242;-38
2022/12/09 15:57:10;;;;;;;22.40;12.13;;;;;;;;;;5018624;28;20203;-36
2022/12/09 15:59:39;;;;;;;20.37;11.07;;;;;;;;;;5032156;28;20215;-34
2022/12/09 16:02:07;;;;;;;23.20;12.00;;;;;;;;;;5034518;28;20232;-36
2022/12/09 16:04:36;;;;;;;21.43;11.33;;;;;;;;;;5031301;28;20213;-35
2022/12/09 16:07:06;;;;;;;22.00;12.37;;;;;;;;;;5022494;28;20199;-30
2022/12/09 16:09:35;;;;;;;21.90;12.03;;;;;;;;;;5030001;28;20225;-37
2022/12/09 16:12:02;;;;;;;18.33;11.27;;;;;;;;;;5027745;28;20222;-34
2022/12/09 16:14:41;;;;;;;18.93;11.90;;;;;;;;;;5032384;28;20199;-34